createdAt,value
2019-03-12T00:01:01.330Z,19.40
2019-03-12T00:03:29.233Z,19.40
2019-03-12T00:05:57.080Z,19.40
2019-03-12T00:08:24.967Z,19.40
2019-03-12T00:10:53.092Z,19.40
2019-03-12T00:13:20.961Z,19.40
2019-03-12T00:15:48.808Z,19.30
2019-03-12T00:18:17.004Z,19.30
2019-03-12T00:20:44.856Z,19.30
2019-03-12T00:23:13.448Z,19.30
2019-03-12T00:25:41.292Z,19.30
2019-03-12T00:28:09.164Z,19.30
2019-03-12T00:30:37.351Z,19.30
2019-03-12T00:33:05.219Z,19.30
2019-03-12T00:35:33.067Z,19.30
2019-03-12T00:38:01.380Z,19.20
2019-03-12T00:40:29.536Z,19.20
2019-03-12T00:42:57.728Z,19.20
2019-03-12T00:45:25.883Z,19.20
2019-03-12T00:47:53.804Z,19.20
2019-03-12T00:50:21.643Z,19.20
2019-03-12T00:52:49.487Z,19.20
2019-03-12T00:55:17.336Z,19.10
2019-03-12T00:57:45.178Z,19.10
2019-03-12T01:00:13.775Z,19.10
2019-03-12T01:02:41.617Z,19.10
2019-03-12T01:05:09.488Z,19.10
2019-03-12T01:07:37.364Z,19.10
2019-03-12T01:10:05.627Z,19.10
2019-03-12T01:12:33.844Z,19.10
2019-03-12T01:15:02.018Z,19.10
2019-03-12T01:17:29.863Z,19.10
2019-03-12T01:19:57.732Z,19.00
2019-03-12T01:22:25.574Z,19.00
2019-03-12T01:24:53.439Z,19.00
2019-03-12T01:27:21.287Z,19.00
2019-03-12T01:29:49.492Z,19.00
2019-03-12T01:32:17.696Z,19.00
2019-03-12T01:34:45.563Z,19.00
2019-03-12T01:37:13.783Z,19.00
2019-03-12T01:39:41.661Z,18.90
2019-03-12T01:42:09.496Z,18.90
2019-03-12T01:44:37.364Z,18.90
2019-03-12T01:47:05.291Z,18.90
2019-03-12T01:49:33.579Z,18.80
2019-03-12T01:52:01.424Z,18.80
2019-03-12T01:54:29.295Z,18.80
2019-03-12T01:56:57.144Z,18.80
2019-03-12T01:59:25.015Z,18.80
2019-03-12T02:01:52.940Z,18.70
2019-03-12T02:04:21.182Z,18.70
2019-03-12T02:06:49.027Z,18.70
2019-03-12T02:09:17.025Z,18.70
2019-03-12T02:11:44.867Z,18.70
2019-03-12T02:14:22.640Z,18.70
2019-03-12T02:16:50.756Z,18.60
2019-03-12T02:19:18.609Z,18.60
2019-03-12T02:21:46.576Z,18.60
2019-03-12T02:24:14.427Z,18.60
2019-03-12T02:26:42.268Z,18.60
2019-03-12T02:29:10.103Z,18.50
2019-03-12T02:31:38.062Z,18.50
2019-03-12T02:34:05.993Z,18.50
2019-03-12T02:36:34.204Z,18.50
2019-03-12T02:39:02.046Z,18.50
2019-03-12T02:41:30.244Z,18.50
2019-03-12T02:43:58.084Z,18.50
2019-03-12T02:46:26.095Z,18.40
2019-03-12T02:48:53.940Z,18.40
2019-03-12T02:51:21.787Z,18.40
2019-03-12T02:53:49.639Z,18.40
2019-03-12T02:56:17.492Z,18.40
2019-03-12T02:58:46.026Z,18.40
2019-03-12T03:01:13.865Z,18.40
2019-03-12T03:03:41.788Z,18.40
2019-03-12T03:06:18.949Z,18.40
2019-03-12T03:08:46.871Z,18.40
2019-03-12T03:11:14.726Z,18.40
2019-03-12T03:13:42.637Z,18.40
2019-03-12T03:16:10.554Z,18.30
2019-03-12T03:18:38.397Z,18.30
2019-03-12T03:21:06.249Z,18.30
2019-03-12T03:23:34.093Z,18.30
2019-03-12T03:26:02.292Z,18.30
2019-03-12T03:28:30.523Z,18.30
2019-03-12T03:30:58.375Z,18.20
2019-03-12T03:33:26.296Z,18.30
2019-03-12T03:35:54.150Z,18.20
2019-03-12T03:38:21.997Z,18.20
2019-03-12T03:40:50.289Z,18.20
2019-03-12T03:43:18.141Z,18.20
2019-03-12T03:45:45.987Z,18.20
2019-03-12T03:48:13.825Z,18.20
2019-03-12T03:50:41.677Z,18.20
2019-03-12T03:53:09.546Z,18.20
2019-03-12T03:55:37.450Z,18.20
2019-03-12T03:58:05.294Z,18.20
2019-03-12T04:00:33.524Z,18.10
2019-03-12T04:03:01.368Z,18.10
2019-03-12T04:05:29.226Z,18.10
2019-03-12T04:07:57.069Z,18.10
2019-03-12T04:10:25.030Z,18.10
2019-03-12T04:12:52.931Z,18.10
2019-03-12T04:15:21.032Z,18.10
2019-03-12T04:17:49.584Z,18.10
2019-03-12T04:20:17.486Z,18.00
2019-03-12T04:22:45.382Z,18.00
2019-03-12T04:25:13.253Z,18.00
2019-03-12T04:27:41.106Z,18.10
2019-03-12T04:30:09.712Z,18.10
2019-03-12T04:32:37.837Z,18.00
2019-03-12T04:35:06.364Z,18.10
2019-03-12T04:37:34.492Z,18.00
2019-03-12T04:40:02.660Z,18.00
2019-03-12T04:42:30.836Z,18.00
2019-03-12T04:44:58.681Z,18.00
2019-03-12T04:47:26.530Z,18.00
2019-03-12T04:49:54.368Z,18.00
2019-03-12T04:52:22.215Z,18.00
2019-03-12T04:54:50.061Z,18.00
2019-03-12T04:57:17.903Z,18.00
2019-03-12T04:59:45.751Z,17.90
2019-03-12T05:02:13.596Z,17.90
2019-03-12T05:04:41.439Z,17.90
2019-03-12T05:07:09.287Z,17.90
2019-03-12T05:09:37.480Z,17.90
2019-03-12T05:12:05.331Z,17.90
2019-03-12T05:14:36.960Z,17.90
2019-03-12T05:17:08.779Z,17.90
2019-03-12T05:19:37.375Z,17.90
2019-03-12T05:22:05.219Z,17.90
2019-03-12T05:24:33.384Z,17.90
2019-03-12T05:27:01.543Z,17.80
2019-03-12T05:29:29.380Z,17.80
2019-03-12T05:31:57.219Z,17.90
2019-03-12T05:34:25.066Z,17.80
2019-03-12T05:36:52.907Z,17.80
2019-03-12T05:39:20.808Z,17.80
2019-03-12T05:41:48.679Z,17.80
2019-03-12T05:44:16.852Z,17.80
2019-03-12T05:46:44.721Z,17.80
2019-03-12T05:49:12.619Z,17.80
2019-03-12T05:51:40.647Z,17.90
2019-03-12T05:54:08.780Z,17.90
2019-03-12T05:56:36.636Z,18.00
2019-03-12T05:59:04.492Z,18.00
2019-03-12T06:01:32.417Z,18.00
2019-03-12T06:04:00.345Z,18.10
2019-03-12T06:06:28.550Z,18.20
2019-03-12T06:08:56.400Z,18.20
2019-03-12T06:11:24.345Z,18.30
2019-03-12T06:13:52.547Z,18.30
2019-03-12T06:16:20.424Z,18.30
2019-03-12T06:18:48.276Z,18.40
2019-03-12T06:21:16.152Z,18.50
2019-03-12T06:23:44.319Z,18.60
2019-03-12T06:26:12.168Z,18.60
2019-03-12T06:28:40.195Z,18.60
2019-03-12T06:31:27.200Z,18.60
2019-03-12T06:33:59.523Z,18.70
2019-03-12T06:36:55.957Z,18.70
2019-03-12T06:39:30.336Z,18.70
2019-03-12T06:42:03.508Z,18.80
2019-03-12T06:45:00.397Z,18.80
2019-03-12T06:47:40.793Z,18.80
2019-03-12T06:50:33.929Z,18.90
2019-03-12T06:53:11.027Z,18.90
2019-03-12T06:55:50.287Z,18.90
2019-03-12T06:58:37.258Z,19.00
2019-03-12T07:01:22.980Z,19.00
2019-03-12T07:04:06.799Z,19.00
2019-03-12T07:06:56.955Z,19.00
2019-03-12T07:09:42.984Z,19.10
2019-03-12T07:12:29.483Z,19.10
2019-03-12T07:15:07.290Z,19.10
2019-03-12T07:17:53.234Z,19.20
2019-03-12T07:20:37.000Z,19.20
2019-03-12T07:23:23.624Z,19.20
2019-03-12T07:26:26.307Z,19.20
2019-03-12T07:29:07.569Z,19.20
2019-03-12T07:31:54.544Z,19.30
2019-03-12T07:34:40.679Z,19.30
2019-03-12T07:37:33.749Z,19.30
2019-03-12T07:40:22.389Z,19.30
2019-03-12T07:43:15.733Z,19.40
2019-03-12T07:45:52.463Z,19.40
2019-03-12T07:48:29.200Z,19.40
2019-03-12T07:51:08.371Z,19.50
2019-03-12T07:53:44.406Z,19.50
2019-03-12T07:56:19.872Z,19.50
2019-03-12T07:59:08.737Z,19.50
2019-03-12T08:01:50.788Z,19.50
2019-03-12T08:04:35.978Z,19.60
2019-03-12T08:07:13.197Z,19.60
2019-03-12T08:10:01.239Z,19.60
2019-03-12T08:12:41.151Z,19.60
2019-03-12T08:15:28.687Z,19.70
2019-03-12T08:18:24.883Z,19.70
2019-03-12T08:21:30.067Z,19.80
2019-03-12T08:24:13.797Z,19.80
2019-03-12T08:27:00.417Z,19.80
2019-03-12T08:29:46.531Z,19.80
2019-03-12T08:32:27.873Z,19.80
2019-03-12T08:35:08.123Z,19.80
2019-03-12T08:37:48.383Z,19.90
2019-03-12T08:40:26.487Z,19.90
2019-03-12T08:43:07.237Z,19.90
2019-03-12T08:45:48.817Z,19.80
2019-03-12T08:48:34.820Z,19.90
2019-03-12T08:51:16.547Z,19.90
2019-03-12T08:54:03.528Z,19.90
2019-03-12T08:56:56.652Z,19.80
2019-03-12T08:59:42.588Z,19.90
2019-03-12T09:02:32.758Z,19.90
2019-03-12T09:05:14.976Z,19.90
2019-03-12T09:07:53.496Z,19.90
2019-03-12T09:10:30.472Z,19.90
2019-03-12T09:13:32.664Z,19.90
2019-03-12T09:16:22.331Z,19.90
2019-03-12T09:19:01.251Z,19.90
2019-03-12T09:21:51.215Z,20.00
2019-03-12T09:24:27.172Z,20.00
2019-03-12T09:27:01.738Z,20.10
2019-03-12T09:29:48.418Z,20.00
2019-03-12T09:32:38.648Z,20.00
2019-03-12T09:35:18.248Z,20.00
2019-03-12T09:37:54.105Z,20.10
2019-03-12T09:40:32.211Z,20.10
2019-03-12T09:43:15.439Z,20.10
2019-03-12T09:46:01.301Z,20.10
2019-03-12T09:48:41.676Z,20.20
2019-03-12T09:51:16.099Z,20.10
2019-03-12T09:53:50.569Z,20.10
2019-03-12T09:56:40.720Z,20.20
2019-03-12T09:59:20.920Z,20.20
2019-03-12T10:02:20.364Z,20.20
2019-03-12T10:05:19.491Z,20.10
2019-03-12T10:08:06.483Z,20.10
2019-03-12T10:10:59.696Z,20.10
2019-03-12T10:13:40.308Z,20.10
2019-03-12T10:16:24.156Z,20.10
2019-03-12T10:19:11.153Z,20.10
2019-03-12T10:22:00.939Z,20.10
2019-03-12T10:24:49.897Z,20.10
2019-03-12T10:27:37.225Z,20.10
2019-03-12T10:30:23.415Z,20.10
2019-03-12T10:33:00.947Z,20.10
2019-03-12T10:35:45.479Z,20.10
2019-03-12T10:38:48.083Z,20.10
2019-03-12T10:41:24.011Z,20.10
2019-03-12T10:43:58.427Z,20.10
2019-03-12T10:46:32.244Z,20.10
2019-03-12T10:49:00.081Z,20.10
2019-03-12T10:51:27.923Z,20.10
2019-03-12T10:53:55.779Z,20.00
2019-03-12T10:56:23.619Z,20.00
2019-03-12T10:58:51.489Z,20.00
2019-03-12T11:01:20.725Z,20.00
2019-03-12T11:03:48.996Z,20.00
2019-03-12T11:06:16.844Z,20.00
2019-03-12T11:08:44.716Z,20.00
2019-03-12T11:11:12.556Z,20.00
2019-03-12T11:13:40.447Z,20.00
2019-03-12T11:16:08.288Z,19.90
2019-03-12T11:18:36.151Z,20.00
2019-03-12T11:21:04.001Z,19.90
2019-03-12T11:23:32.210Z,19.90
2019-03-12T11:26:00.052Z,19.90
2019-03-12T11:28:27.995Z,19.90
2019-03-12T11:30:56.272Z,19.90
2019-03-12T11:33:24.143Z,19.90
2019-03-12T11:35:51.987Z,19.90
2019-03-12T11:38:19.860Z,19.90
2019-03-12T11:40:47.743Z,19.80
2019-03-12T11:43:15.628Z,19.80
2019-03-12T11:45:43.552Z,19.80
2019-03-12T11:48:11.394Z,19.80
2019-03-12T11:50:39.252Z,19.80
2019-03-12T11:53:07.097Z,19.80
2019-03-12T11:55:35.661Z,19.80
2019-03-12T11:58:03.544Z,19.80
2019-03-12T12:00:36.501Z,19.80
2019-03-12T12:03:04.354Z,19.80
2019-03-12T12:05:32.215Z,19.80
2019-03-12T12:08:00.409Z,19.70
2019-03-12T12:10:28.469Z,19.70
2019-03-12T12:12:56.449Z,19.70
2019-03-12T12:15:24.521Z,19.70
2019-03-12T12:17:52.397Z,19.70
2019-03-12T12:20:29.786Z,19.70
2019-03-12T12:22:50.164Z,19.70
2019-03-12T12:25:18.040Z,19.70
2019-03-12T12:27:45.883Z,19.70
2019-03-12T12:30:14.982Z,19.80
2019-03-12T12:32:42.817Z,19.80
2019-03-12T12:35:10.700Z,19.80
2019-03-12T12:37:38.560Z,19.90
2019-03-12T12:40:07.365Z,19.90
2019-03-12T12:42:36.276Z,19.90
2019-03-12T12:45:04.952Z,19.90
2019-03-12T12:47:32.808Z,19.90
2019-03-12T12:50:00.707Z,19.90
2019-03-12T12:52:28.581Z,19.90
2019-03-12T12:54:56.447Z,19.90
2019-03-12T12:57:24.617Z,19.90
2019-03-12T12:59:52.572Z,19.90
2019-03-12T13:02:20.442Z,19.90
2019-03-12T13:04:48.359Z,19.90
2019-03-12T13:07:16.204Z,19.80
2019-03-12T13:09:44.077Z,19.90
2019-03-12T13:12:12.195Z,19.90
2019-03-12T13:14:41.689Z,19.80
2019-03-12T13:17:10.093Z,19.80
2019-03-12T13:19:38.100Z,19.80
2019-03-12T13:22:06.227Z,19.80
2019-03-12T13:24:34.106Z,19.70
2019-03-12T13:27:02.035Z,19.70
2019-03-12T13:29:30.359Z,19.70
2019-03-12T13:31:58.215Z,19.70
2019-03-12T13:34:26.119Z,19.70
2019-03-12T13:36:53.964Z,19.70
2019-03-12T13:39:21.813Z,19.70
2019-03-12T13:41:49.798Z,19.70
2019-03-12T13:44:17.780Z,19.70
2019-03-12T13:46:45.778Z,19.70
2019-03-12T13:49:13.766Z,19.70
2019-03-12T13:51:41.620Z,19.70
2019-03-12T13:54:09.887Z,19.60
2019-03-12T13:56:38.192Z,19.60
2019-03-12T13:59:06.036Z,19.60
2019-03-12T14:01:33.884Z,19.60
2019-03-12T14:04:10.762Z,19.60
2019-03-12T14:06:31.320Z,19.70
2019-03-12T14:08:59.168Z,19.70
2019-03-12T14:11:27.112Z,19.70
2019-03-12T14:13:54.987Z,19.70
2019-03-12T14:16:22.919Z,19.70
2019-03-12T14:18:50.764Z,19.70
2019-03-12T14:21:18.629Z,19.70
2019-03-12T14:23:48.767Z,19.80
2019-03-12T14:26:16.641Z,19.80
2019-03-12T14:28:44.567Z,19.80
2019-03-12T14:31:12.439Z,19.80
2019-03-12T14:33:40.284Z,19.80
2019-03-12T14:36:08.457Z,19.80
2019-03-12T14:38:36.628Z,19.80
2019-03-12T14:41:04.504Z,19.80
2019-03-12T14:43:32.747Z,19.80
2019-03-12T14:46:00.628Z,19.80
2019-03-12T14:48:38.494Z,19.80
2019-03-12T14:51:07.999Z,19.80
2019-03-12T14:53:35.855Z,19.70
2019-03-12T14:56:03.731Z,19.70
2019-03-12T14:58:31.651Z,19.70
2019-03-12T15:00:59.836Z,19.70
2019-03-12T15:03:27.680Z,19.70
2019-03-12T15:05:55.557Z,19.70
2019-03-12T15:08:23.403Z,19.70
2019-03-12T15:10:51.267Z,19.70
2019-03-12T15:13:19.455Z,19.70
2019-03-12T15:15:47.412Z,19.70
2019-03-12T15:18:15.255Z,19.70
2019-03-12T15:20:43.124Z,19.70
2019-03-12T15:23:10.966Z,19.70
2019-03-12T15:25:38.807Z,19.70
2019-03-12T15:28:06.956Z,19.70
2019-03-12T15:30:34.799Z,19.70
2019-03-12T15:33:02.647Z,19.70
2019-03-12T15:35:30.497Z,19.80
2019-03-12T15:37:58.503Z,19.70
2019-03-12T15:40:26.484Z,19.80
2019-03-12T15:42:54.788Z,19.70
2019-03-12T15:45:23.153Z,19.80
2019-03-12T15:47:51.021Z,19.80
2019-03-12T15:50:19.127Z,19.80
2019-03-12T15:52:47.111Z,19.80
2019-03-12T15:55:14.955Z,19.80
2019-03-12T15:57:42.819Z,19.80
2019-03-12T16:00:11.059Z,19.80
2019-03-12T16:02:39.013Z,19.80
2019-03-12T16:05:06.953Z,19.80
2019-03-12T16:07:34.819Z,19.80
2019-03-12T16:10:02.791Z,19.80
2019-03-12T16:12:30.656Z,19.80
2019-03-12T16:14:58.497Z,19.80
2019-03-12T16:17:29.658Z,19.80
2019-03-12T16:19:56.396Z,19.80
2019-03-12T16:22:24.271Z,19.80
2019-03-12T16:24:52.107Z,19.80
2019-03-12T16:27:19.979Z,19.80
2019-03-12T16:29:47.823Z,19.80
2019-03-12T16:32:15.696Z,19.80
2019-03-12T16:34:43.564Z,19.80
2019-03-12T16:37:11.752Z,19.90
2019-03-12T16:39:39.588Z,19.80
2019-03-12T16:42:07.543Z,19.80
2019-03-12T16:44:35.383Z,19.80
2019-03-12T16:47:03.591Z,19.80
2019-03-12T16:49:31.431Z,19.80
2019-03-12T16:51:59.306Z,19.80
2019-03-12T16:54:27.155Z,19.80
2019-03-12T16:56:55.385Z,19.80
2019-03-12T16:59:23.238Z,19.80
2019-03-12T17:01:51.077Z,19.80
2019-03-12T17:04:18.929Z,19.80
2019-03-12T17:06:47.340Z,19.80
2019-03-12T17:09:15.296Z,19.80
2019-03-12T17:11:43.236Z,19.80
2019-03-12T17:14:11.100Z,19.70
2019-03-12T17:16:38.947Z,19.70
2019-03-12T17:19:07.184Z,19.70
2019-03-12T17:24:11.252Z,19.70
2019-03-12T17:26:39.100Z,19.70
2019-03-12T17:29:06.967Z,19.70
2019-03-12T17:31:35.177Z,19.80
2019-03-12T17:34:03.084Z,19.80
2019-03-12T17:36:30.961Z,19.80
2019-03-12T17:38:59.161Z,19.80
2019-03-12T17:41:27.006Z,19.70
2019-03-12T17:43:57.644Z,19.80
2019-03-12T17:46:24.431Z,19.80
2019-03-12T17:48:52.285Z,19.70
2019-03-12T17:51:20.127Z,19.70
2019-03-12T17:53:48.309Z,19.70
2019-03-12T17:56:16.477Z,19.70
2019-03-12T17:58:44.328Z,19.70
2019-03-12T18:01:12.636Z,19.70
2019-03-12T18:03:40.496Z,19.80
2019-03-12T18:06:08.346Z,19.70
2019-03-12T18:08:36.199Z,19.70
2019-03-12T18:11:04.048Z,19.70
2019-03-12T18:13:31.904Z,19.70
2019-03-12T18:15:59.744Z,19.80
2019-03-12T18:18:27.600Z,19.80
2019-03-12T18:20:55.773Z,19.80
2019-03-12T18:23:23.619Z,19.80
2019-03-12T18:25:51.556Z,19.80
2019-03-12T18:28:19.411Z,19.80
2019-03-12T18:30:47.525Z,19.80
2019-03-12T18:33:15.705Z,19.90
2019-03-12T18:35:43.548Z,19.90
2019-03-12T18:38:11.400Z,19.90
2019-03-12T18:40:39.252Z,19.90
2019-03-12T18:43:07.106Z,19.90
2019-03-12T18:45:34.966Z,19.90
2019-03-12T18:48:02.818Z,19.90
2019-03-12T18:50:31.084Z,20.00
2019-03-12T18:52:58.928Z,20.00
2019-03-12T18:55:43.348Z,20.00
2019-03-12T18:58:11.192Z,20.00
2019-03-12T19:00:39.048Z,20.00
2019-03-12T19:03:06.900Z,20.00
2019-03-12T19:05:34.757Z,20.00
2019-03-12T19:08:02.676Z,20.00
2019-03-12T19:10:30.792Z,20.10
2019-03-12T19:12:59.840Z,20.10
2019-03-12T19:15:27.740Z,20.10
2019-03-12T19:17:55.884Z,20.10
2019-03-12T19:20:24.327Z,20.10
2019-03-12T19:22:52.843Z,20.10
2019-03-12T19:25:20.810Z,20.10
2019-03-12T19:27:59.259Z,20.10
2019-03-12T19:30:19.482Z,20.10
2019-03-12T19:32:51.644Z,20.10
2019-03-12T19:35:19.786Z,20.10
2019-03-12T19:37:47.803Z,20.10
2019-03-12T19:40:18.571Z,20.10
2019-03-12T19:42:46.649Z,20.10
2019-03-12T19:45:14.949Z,20.10
2019-03-12T19:47:43.116Z,20.10
2019-03-12T19:50:12.104Z,20.10
2019-03-12T19:52:40.056Z,20.10
2019-03-12T19:55:09.688Z,20.10
2019-03-12T19:57:37.543Z,20.20
2019-03-12T20:00:05.904Z,20.20
2019-03-12T20:02:33.752Z,20.20
2019-03-12T20:05:01.999Z,20.10
2019-03-12T20:07:29.909Z,20.20
2019-03-12T20:10:23.721Z,20.20
2019-03-12T20:13:09.733Z,20.20
2019-03-12T20:15:47.509Z,20.20
2019-03-12T20:18:37.676Z,20.20
2019-03-12T20:21:30.924Z,20.20
2019-03-12T20:24:27.462Z,20.20
2019-03-12T20:27:30.281Z,20.20
2019-03-12T20:30:17.613Z,20.20
2019-03-12T20:33:05.037Z,20.20
2019-03-12T20:35:51.319Z,20.20
2019-03-12T20:38:44.617Z,20.20
2019-03-12T20:41:32.021Z,20.20
2019-03-12T20:44:18.212Z,20.20
2019-03-12T20:47:04.205Z,20.20
2019-03-12T20:49:48.101Z,20.20
2019-03-12T20:52:34.107Z,20.20
2019-03-12T20:55:39.689Z,20.20
2019-03-12T20:58:44.926Z,20.20
2019-03-12T21:01:28.980Z,20.20
2019-03-12T21:04:30.963Z,20.20
2019-03-12T21:07:24.948Z,20.20
2019-03-12T21:10:11.233Z,20.20
2019-03-12T21:13:07.657Z,20.20
2019-03-12T21:15:57.861Z,20.10
2019-03-12T21:18:47.788Z,20.10
2019-03-12T21:21:35.354Z,20.20
2019-03-12T21:24:31.584Z,20.20
2019-03-12T21:27:24.540Z,20.20
2019-03-12T21:29:52.549Z,20.20
2019-03-12T21:32:20.560Z,20.20
2019-03-12T21:34:48.636Z,20.20
2019-03-12T21:37:16.941Z,20.20
2019-03-12T21:39:54.452Z,20.20
2019-03-12T21:42:14.586Z,20.20
2019-03-12T21:44:42.444Z,20.30
2019-03-12T21:47:10.642Z,20.30
2019-03-12T21:49:38.495Z,20.20
2019-03-12T21:52:07.014Z,20.20
2019-03-12T21:54:35.265Z,20.20
2019-03-12T21:57:03.148Z,20.20
2019-03-12T21:59:31.011Z,20.20
2019-03-12T22:01:58.960Z,20.20
2019-03-12T22:04:26.810Z,20.20
2019-03-12T22:06:55.007Z,20.10
2019-03-12T22:09:22.931Z,20.00
2019-03-12T22:11:50.959Z,20.00
2019-03-12T22:14:18.831Z,19.90
2019-03-12T22:16:48.416Z,19.90
2019-03-12T22:19:16.298Z,19.90
2019-03-12T22:21:51.452Z,19.90
2019-03-12T22:24:21.184Z,19.80
2019-03-12T22:26:49.532Z,19.80
2019-03-12T22:29:17.376Z,19.80
2019-03-12T22:31:45.254Z,19.80
2019-03-12T22:34:13.408Z,19.80
2019-03-12T22:36:41.364Z,19.70
2019-03-12T22:39:09.533Z,19.70
2019-03-12T22:41:37.796Z,19.70
2019-03-12T22:44:05.657Z,19.70
2019-03-12T22:46:33.519Z,19.60
2019-03-12T22:49:01.369Z,19.60
2019-03-12T22:51:29.300Z,19.60
2019-03-12T22:53:57.148Z,19.60
2019-03-12T22:56:25.661Z,19.60
2019-03-12T22:58:53.576Z,19.60
2019-03-12T23:01:21.428Z,19.50
2019-03-12T23:03:49.649Z,19.50
2019-03-12T23:06:17.595Z,19.50
2019-03-12T23:08:45.435Z,19.50
2019-03-12T23:11:13.367Z,19.40
2019-03-12T23:13:41.533Z,19.50
2019-03-12T23:16:10.133Z,19.40
2019-03-12T23:18:37.999Z,19.40
2019-03-12T23:21:05.853Z,19.40
2019-03-12T23:23:33.708Z,19.40
2019-03-12T23:26:01.584Z,19.40
2019-03-12T23:28:29.516Z,19.40
2019-03-12T23:30:57.444Z,19.30
2019-03-12T23:33:25.304Z,19.30
2019-03-12T23:35:53.191Z,19.40
2019-03-12T23:38:21.035Z,19.30
2019-03-12T23:40:48.992Z,19.30
2019-03-12T23:43:16.856Z,19.30
2019-03-12T23:45:45.033Z,19.30
2019-03-12T23:48:12.959Z,19.30
2019-03-12T23:50:41.152Z,19.30
2019-03-12T23:53:09.023Z,19.30
2019-03-12T23:55:36.879Z,19.30
2019-03-12T23:58:04.749Z,19.20
